sensor_id;sensor_type;location;lat;lon;timestamp;P1;durP1;ratioP1;P2;durP2;ratioP2
53533;SDS011;39421;53.204;6.568;2022-07-15T00:01:15;3.85;;;1.52;;
53533;SDS011;39421;53.204;6.568;2022-07-15T00:03:40;4.45;;;1.50;;
53533;SDS011;39421;53.204;6.568;2022-07-15T00:06:06;4.50;;;1.70;;
53533;SDS011;39421;53.204;6.568;2022-07-15T00:08:32;4.47;;;1.43;;
53533;SDS011;39421;53.204;6.568;2022-07-15T00:10:57;5.30;;;1.70;;
53533;SDS011;39421;53.204;6.568;2022-07-15T00:13:24;4.67;;;1.60;;
53533;SDS011;39421;53.204;6.568;2022-07-15T00:15:51;4.50;;;1.83;;
53533;SDS011;39421;53.204;6.568;2022-07-15T00:18:18;4.72;;;1.80;;
53533;SDS011;39421;53.204;6.568;2022-07-15T00:20:43;3.45;;;1.40;;
53533;SDS011;39421;53.204;6.568;2022-07-15T00:23:10;4.55;;;1.42;;
53533;SDS011;39421;53.204;6.568;2022-07-15T00:25:35;3.85;;;1.60;;
53533;SDS011;39421;53.204;6.568;2022-07-15T00:28:05;4.28;;;1.35;;
53533;SDS011;39421;53.204;6.568;2022-07-15T00:30:33;5.50;;;1.80;;
53533;SDS011;39421;53.204;6.568;2022-07-15T00:33:00;5.82;;;1.52;;
53533;SDS011;39421;53.204;6.568;2022-07-15T00:35:27;3.90;;;1.60;;
53533;SDS011;39421;53.204;6.568;2022-07-15T00:37:57;4.80;;;1.50;;
53533;SDS011;39421;53.204;6.568;2022-07-15T00:40:23;4.38;;;1.50;;
53533;SDS011;39421;53.204;6.568;2022-07-15T00:42:49;6.07;;;1.98;;
53533;SDS011;39421;53.204;6.568;2022-07-15T00:45:16;4.53;;;1.70;;
53533;SDS011;39421;53.204;6.568;2022-07-15T00:47:44;4.95;;;1.70;;
53533;SDS011;39421;53.204;6.568;2022-07-15T00:50:11;3.78;;;1.52;;
53533;SDS011;39421;53.204;6.568;2022-07-15T00:52:39;4.90;;;1.60;;
53533;SDS011;39421;53.204;6.568;2022-07-15T00:55:09;3.80;;;1.50;;
53533;SDS011;39421;53.204;6.568;2022-07-15T00:57:36;3.72;;;1.40;;
53533;SDS011;39421;53.204;6.568;2022-07-15T01:00:05;3.67;;;1.35;;
53533;SDS011;39421;53.204;6.568;2022-07-15T01:02:32;3.40;;;1.50;;
53533;SDS011;39421;53.204;6.568;2022-07-15T01:05:00;4.18;;;1.52;;
53533;SDS011;39421;53.204;6.568;2022-07-15T01:07:28;4.70;;;1.52;;
53533;SDS011;39421;53.204;6.568;2022-07-15T01:09:54;3.85;;;1.60;;
53533;SDS011;39421;53.204;6.568;2022-07-15T01:12:20;3.80;;;1.40;;
53533;SDS011;39421;53.204;6.568;2022-07-15T01:14:47;4.45;;;1.50;;
53533;SDS011;39421;53.204;6.568;2022-07-15T01:17:13;4.75;;;1.70;;
53533;SDS011;39421;53.204;6.568;2022-07-15T01:19:40;4.68;;;1.60;;
53533;SDS011;39421;53.204;6.568;2022-07-15T01:22:05;4.57;;;1.60;;
53533;SDS011;39421;53.204;6.568;2022-07-15T01:24:32;5.15;;;1.58;;
53533;SDS011;39421;53.204;6.568;2022-07-15T01:26:58;4.28;;;1.40;;
53533;SDS011;39421;53.204;6.568;2022-07-15T01:29:25;4.40;;;1.50;;
53533;SDS011;39421;53.204;6.568;2022-07-15T01:31:51;3.17;;;1.30;;
53533;SDS011;39421;53.204;6.568;2022-07-15T01:34:17;3.97;;;1.37;;
53533;SDS011;39421;53.204;6.568;2022-07-15T01:36:44;4.20;;;1.80;;
53533;SDS011;39421;53.204;6.568;2022-07-15T01:39:10;3.13;;;1.33;;
53533;SDS011;39421;53.204;6.568;2022-07-15T01:41:36;3.35;;;1.20;;
53533;SDS011;39421;53.204;6.568;2022-07-15T01:44:02;3.17;;;1.30;;
53533;SDS011;39421;53.204;6.568;2022-07-15T01:46:28;3.78;;;1.30;;
53533;SDS011;39421;53.204;6.568;2022-07-15T01:48:53;4.07;;;1.40;;
53533;SDS011;39421;53.204;6.568;2022-07-15T01:51:38;5.22;;;1.50;;
53533;SDS011;39421;53.204;6.568;2022-07-15T01:54:03;4.90;;;1.57;;
53533;SDS011;39421;53.204;6.568;2022-07-15T01:56:29;5.57;;;1.80;;
53533;SDS011;39421;53.204;6.568;2022-07-15T01:58:55;4.60;;;1.60;;
53533;SDS011;39421;53.204;6.568;2022-07-15T02:01:20;3.95;;;1.40;;
53533;SDS011;39421;53.204;6.568;2022-07-15T02:03:46;2.63;;;1.30;;
53533;SDS011;39421;53.204;6.568;2022-07-15T02:06:11;3.10;;;1.30;;
53533;SDS011;39421;53.204;6.568;2022-07-15T02:08:37;3.80;;;1.30;;
53533;SDS011;39421;53.204;6.568;2022-07-15T02:11:03;3.80;;;1.33;;
53533;SDS011;39421;53.204;6.568;2022-07-15T02:13:28;4.00;;;1.10;;
53533;SDS011;39421;53.204;6.568;2022-07-15T02:15:54;3.27;;;1.10;;
53533;SDS011;39421;53.204;6.568;2022-07-15T02:18:20;2.45;;;1.10;;
53533;SDS011;39421;53.204;6.568;2022-07-15T02:20:55;3.90;;;1.30;;
53533;SDS011;39421;53.204;6.568;2022-07-15T02:23:21;2.72;;;1.13;;
53533;SDS011;39421;53.204;6.568;2022-07-15T02:25:48;3.87;;;1.43;;
53533;SDS011;39421;53.204;6.568;2022-07-15T02:28:14;3.42;;;1.20;;
53533;SDS011;39421;53.204;6.568;2022-07-15T02:30:41;3.75;;;1.10;;
53533;SDS011;39421;53.204;6.568;2022-07-15T02:33:08;2.07;;;1.00;;
53533;SDS011;39421;53.204;6.568;2022-07-15T02:35:35;2.58;;;1.20;;
53533;SDS011;39421;53.204;6.568;2022-07-15T02:38:02;2.35;;;1.05;;
53533;SDS011;39421;53.204;6.568;2022-07-15T02:40:28;3.03;;;1.23;;
53533;SDS011;39421;53.204;6.568;2022-07-15T02:42:55;2.95;;;1.02;;
53533;SDS011;39421;53.204;6.568;2022-07-15T02:45:23;4.13;;;1.13;;
53533;SDS011;39421;53.204;6.568;2022-07-15T02:47:50;3.83;;;1.27;;
53533;SDS011;39421;53.204;6.568;2022-07-15T02:50:17;3.13;;;1.02;;
53533;SDS011;39421;53.204;6.568;2022-07-15T02:52:44;3.58;;;1.30;;
53533;SDS011;39421;53.204;6.568;2022-07-15T02:55:10;3.90;;;1.23;;
53533;SDS011;39421;53.204;6.568;2022-07-15T02:57:38;3.58;;;1.10;;
53533;SDS011;39421;53.204;6.568;2022-07-15T03:00:05;3.97;;;1.20;;
53533;SDS011;39421;53.204;6.568;2022-07-15T03:02:36;4.17;;;1.30;;
53533;SDS011;39421;53.204;6.568;2022-07-15T03:05:02;3.00;;;1.20;;
53533;SDS011;39421;53.204;6.568;2022-07-15T03:07:28;2.70;;;1.10;;
53533;SDS011;39421;53.204;6.568;2022-07-15T03:09:57;3.15;;;1.13;;
53533;SDS011;39421;53.204;6.568;2022-07-15T03:12:25;2.35;;;1.08;;
53533;SDS011;39421;53.204;6.568;2022-07-15T03:14:50;3.30;;;1.20;;
53533;SDS011;39421;53.204;6.568;2022-07-15T03:17:16;3.40;;;1.20;;
53533;SDS011;39421;53.204;6.568;2022-07-15T03:19:42;4.13;;;1.20;;
53533;SDS011;39421;53.204;6.568;2022-07-15T03:22:08;2.47;;;1.00;;
53533;SDS011;39421;53.204;6.568;2022-07-15T03:24:33;2.57;;;1.10;;
53533;SDS011;39421;53.204;6.568;2022-07-15T03:27:01;5.22;;;1.20;;
53533;SDS011;39421;53.204;6.568;2022-07-15T03:29:26;2.22;;;1.38;;
53533;SDS011;39421;53.204;6.568;2022-07-15T03:31:54;3.08;;;1.23;;
53533;SDS011;39421;53.204;6.568;2022-07-15T03:34:21;3.05;;;1.20;;
53533;SDS011;39421;53.204;6.568;2022-07-15T03:36:50;3.97;;;1.42;;
53533;SDS011;39421;53.204;6.568;2022-07-15T03:39:16;3.92;;;1.30;;
53533;SDS011;39421;53.204;6.568;2022-07-15T03:41:42;2.85;;;1.20;;
53533;SDS011;39421;53.204;6.568;2022-07-15T03:44:08;2.97;;;1.20;;
53533;SDS011;39421;53.204;6.568;2022-07-15T03:46:33;1.88;;;1.10;;
53533;SDS011;39421;53.204;6.568;2022-07-15T03:49:00;2.45;;;1.10;;
53533;SDS011;39421;53.204;6.568;2022-07-15T03:51:26;2.83;;;1.10;;
53533;SDS011;39421;53.204;6.568;2022-07-15T03:53:59;3.80;;;1.05;;
53533;SDS011;39421;53.204;6.568;2022-07-15T03:56:27;2.92;;;1.15;;
53533;SDS011;39421;53.204;6.568;2022-07-15T03:58:53;3.38;;;1.23;;
53533;SDS011;39421;53.204;6.568;2022-07-15T04:01:25;2.08;;;1.00;;
53533;SDS011;39421;53.204;6.568;2022-07-15T04:03:52;2.28;;;1.00;;
53533;SDS011;39421;53.204;6.568;2022-07-15T04:06:19;4.22;;;1.00;;
53533;SDS011;39421;53.204;6.568;2022-07-15T04:08:45;1.50;;;0.90;;
53533;SDS011;39421;53.204;6.568;2022-07-15T04:11:12;3.70;;;1.02;;
53533;SDS011;39421;53.204;6.568;2022-07-15T04:13:38;3.35;;;1.10;;
53533;SDS011;39421;53.204;6.568;2022-07-15T04:16:06;3.20;;;1.23;;
53533;SDS011;39421;53.204;6.568;2022-07-15T04:18:34;3.00;;;1.17;;
53533;SDS011;39421;53.204;6.568;2022-07-15T04:21:00;3.63;;;1.08;;
53533;SDS011;39421;53.204;6.568;2022-07-15T04:23:26;5.70;;;1.67;;
53533;SDS011;39421;53.204;6.568;2022-07-15T04:25:55;10.70;;;1.95;;
53533;SDS011;39421;53.204;6.568;2022-07-15T04:28:21;3.95;;;1.33;;
53533;SDS011;39421;53.204;6.568;2022-07-15T04:30:50;3.38;;;1.35;;
53533;SDS011;39421;53.204;6.568;2022-07-15T04:33:16;4.43;;;1.10;;
53533;SDS011;39421;53.204;6.568;2022-07-15T04:35:42;1.77;;;1.00;;
53533;SDS011;39421;53.204;6.568;2022-07-15T04:38:10;3.37;;;1.10;;
53533;SDS011;39421;53.204;6.568;2022-07-15T04:40:36;3.20;;;1.30;;
53533;SDS011;39421;53.204;6.568;2022-07-15T04:43:04;3.77;;;1.10;;
53533;SDS011;39421;53.204;6.568;2022-07-15T04:45:30;2.92;;;1.05;;
53533;SDS011;39421;53.204;6.568;2022-07-15T04:47:57;2.92;;;1.10;;
53533;SDS011;39421;53.204;6.568;2022-07-15T04:50:25;3.40;;;1.05;;
53533;SDS011;39421;53.204;6.568;2022-07-15T04:53:09;3.53;;;1.20;;
53533;SDS011;39421;53.204;6.568;2022-07-15T04:55:34;4.13;;;1.08;;
53533;SDS011;39421;53.204;6.568;2022-07-15T04:58:06;3.30;;;1.10;;
53533;SDS011;39421;53.204;6.568;2022-07-15T05:00:34;2.47;;;1.00;;
53533;SDS011;39421;53.204;6.568;2022-07-15T05:03:00;3.90;;;1.25;;
53533;SDS011;39421;53.204;6.568;2022-07-15T05:05:29;2.55;;;1.10;;
53533;SDS011;39421;53.204;6.568;2022-07-15T05:07:59;2.65;;;1.02;;
53533;SDS011;39421;53.204;6.568;2022-07-15T05:10:27;4.82;;;1.20;;
53533;SDS011;39421;53.204;6.568;2022-07-15T05:12:55;4.50;;;1.20;;
53533;SDS011;39421;53.204;6.568;2022-07-15T05:15:23;2.38;;;0.90;;
53533;SDS011;39421;53.204;6.568;2022-07-15T05:17:49;4.18;;;1.50;;
53533;SDS011;39421;53.204;6.568;2022-07-15T05:20:15;3.83;;;1.10;;
53533;SDS011;39421;53.204;6.568;2022-07-15T05:22:40;3.90;;;1.00;;
53533;SDS011;39421;53.204;6.568;2022-07-15T05:25:06;2.33;;;1.00;;
53533;SDS011;39421;53.204;6.568;2022-07-15T05:27:32;4.10;;;1.20;;
53533;SDS011;39421;53.204;6.568;2022-07-15T05:29:58;2.13;;;0.83;;
53533;SDS011;39421;53.204;6.568;2022-07-15T05:32:25;3.08;;;0.93;;
53533;SDS011;39421;53.204;6.568;2022-07-15T05:34:50;4.43;;;1.43;;
53533;SDS011;39421;53.204;6.568;2022-07-15T05:37:16;3.15;;;1.05;;
53533;SDS011;39421;53.204;6.568;2022-07-15T05:39:42;3.15;;;0.90;;
53533;SDS011;39421;53.204;6.568;2022-07-15T05:42:23;3.75;;;1.13;;
53533;SDS011;39421;53.204;6.568;2022-07-15T05:44:50;3.08;;;1.10;;
53533;SDS011;39421;53.204;6.568;2022-07-15T05:47:16;4.75;;;1.40;;
53533;SDS011;39421;53.204;6.568;2022-07-15T05:49:45;4.20;;;1.30;;
53533;SDS011;39421;53.204;6.568;2022-07-15T05:52:12;7.20;;;1.45;;
53533;SDS011;39421;53.204;6.568;2022-07-15T05:54:38;3.60;;;1.15;;
53533;SDS011;39421;53.204;6.568;2022-07-15T05:57:03;3.97;;;0.98;;
53533;SDS011;39421;53.204;6.568;2022-07-15T05:59:29;2.60;;;0.95;;
53533;SDS011;39421;53.204;6.568;2022-07-15T06:01:56;3.53;;;1.10;;
53533;SDS011;39421;53.204;6.568;2022-07-15T06:04:25;5.00;;;1.10;;
53533;SDS011;39421;53.204;6.568;2022-07-15T06:06:52;3.38;;;1.00;;
53533;SDS011;39421;53.204;6.568;2022-07-15T06:09:19;2.03;;;0.90;;
53533;SDS011;39421;53.204;6.568;2022-07-15T06:11:45;3.05;;;0.95;;
53533;SDS011;39421;53.204;6.568;2022-07-15T06:14:10;3.35;;;1.05;;
53533;SDS011;39421;53.204;6.568;2022-07-15T06:16:36;3.30;;;0.98;;
53533;SDS011;39421;53.204;6.568;2022-07-15T06:19:02;2.60;;;0.90;;
53533;SDS011;39421;53.204;6.568;2022-07-15T06:21:37;3.50;;;0.93;;
53533;SDS011;39421;53.204;6.568;2022-07-15T06:24:02;3.25;;;0.98;;
53533;SDS011;39421;53.204;6.568;2022-07-15T06:26:28;2.63;;;1.02;;
53533;SDS011;39421;53.204;6.568;2022-07-15T06:28:54;2.23;;;1.00;;
53533;SDS011;39421;53.204;6.568;2022-07-15T06:31:20;3.30;;;1.00;;
53533;SDS011;39421;53.204;6.568;2022-07-15T06:33:46;3.27;;;1.10;;
53533;SDS011;39421;53.204;6.568;2022-07-15T06:36:12;2.47;;;1.00;;
53533;SDS011;39421;53.204;6.568;2022-07-15T06:38:37;2.13;;;0.85;;
53533;SDS011;39421;53.204;6.568;2022-07-15T06:41:03;4.43;;;0.93;;
53533;SDS011;39421;53.204;6.568;2022-07-15T06:43:30;3.60;;;0.90;;
53533;SDS011;39421;53.204;6.568;2022-07-15T06:45:55;3.83;;;1.00;;
53533;SDS011;39421;53.204;6.568;2022-07-15T06:48:21;2.60;;;0.85;;
53533;SDS011;39421;53.204;6.568;2022-07-15T06:50:53;1.65;;;0.80;;
53533;SDS011;39421;53.204;6.568;2022-07-15T06:53:19;1.80;;;0.82;;
53533;SDS011;39421;53.204;6.568;2022-07-15T06:55:45;2.55;;;0.93;;
53533;SDS011;39421;53.204;6.568;2022-07-15T06:58:14;2.35;;;0.95;;
53533;SDS011;39421;53.204;6.568;2022-07-15T07:00:40;4.07;;;1.10;;
53533;SDS011;39421;53.204;6.568;2022-07-15T07:03:05;5.37;;;1.00;;
53533;SDS011;39421;53.204;6.568;2022-07-15T07:05:31;3.43;;;1.00;;
53533;SDS011;39421;53.204;6.568;2022-07-15T07:07:58;3.17;;;0.93;;
53533;SDS011;39421;53.204;6.568;2022-07-15T07:10:24;3.67;;;1.20;;
53533;SDS011;39421;53.204;6.568;2022-07-15T07:12:51;4.45;;;1.10;;
53533;SDS011;39421;53.204;6.568;2022-07-15T07:15:17;3.88;;;1.30;;
53533;SDS011;39421;53.204;6.568;2022-07-15T07:17:44;3.47;;;1.50;;
53533;SDS011;39421;53.204;6.568;2022-07-15T07:20:09;6.88;;;1.85;;
53533;SDS011;39421;53.204;6.568;2022-07-15T07:22:36;3.05;;;1.15;;
53533;SDS011;39421;53.204;6.568;2022-07-15T07:25:03;5.57;;;1.40;;
53533;SDS011;39421;53.204;6.568;2022-07-15T07:27:29;2.53;;;0.90;;
53533;SDS011;39421;53.204;6.568;2022-07-15T07:29:54;2.50;;;0.83;;
53533;SDS011;39421;53.204;6.568;2022-07-15T07:32:20;4.27;;;1.00;;
53533;SDS011;39421;53.204;6.568;2022-07-15T07:34:47;6.53;;;1.10;;
53533;SDS011;39421;53.204;6.568;2022-07-15T07:37:13;10.70;;;1.20;;
53533;SDS011;39421;53.204;6.568;2022-07-15T07:39:38;3.90;;;1.00;;
53533;SDS011;39421;53.204;6.568;2022-07-15T07:42:05;3.40;;;0.90;;
53533;SDS011;39421;53.204;6.568;2022-07-15T07:44:37;1.10;;;0.70;;
53533;SDS011;39421;53.204;6.568;2022-07-15T07:47:02;2.03;;;0.77;;
53533;SDS011;39421;53.204;6.568;2022-07-15T07:49:28;3.47;;;1.00;;
53533;SDS011;39421;53.204;6.568;2022-07-15T07:51:54;2.58;;;0.85;;
53533;SDS011;39421;53.204;6.568;2022-07-15T07:54:21;4.22;;;2.20;;
53533;SDS011;39421;53.204;6.568;2022-07-15T07:56:46;1.98;;;1.05;;
53533;SDS011;39421;53.204;6.568;2022-07-15T07:59:14;2.20;;;0.90;;
53533;SDS011;39421;53.204;6.568;2022-07-15T08:01:40;3.20;;;0.88;;
53533;SDS011;39421;53.204;6.568;2022-07-15T08:04:11;1.97;;;1.10;;
53533;SDS011;39421;53.204;6.568;2022-07-15T08:06:39;3.95;;;0.85;;
53533;SDS011;39421;53.204;6.568;2022-07-15T08:09:06;2.33;;;0.88;;
53533;SDS011;39421;53.204;6.568;2022-07-15T08:11:32;4.20;;;0.85;;
53533;SDS011;39421;53.204;6.568;2022-07-15T08:13:58;1.73;;;0.68;;
53533;SDS011;39421;53.204;6.568;2022-07-15T08:16:26;1.85;;;0.70;;
53533;SDS011;39421;53.204;6.568;2022-07-15T08:18:52;1.98;;;0.70;;
53533;SDS011;39421;53.204;6.568;2022-07-15T08:21:19;2.55;;;0.45;;
53533;SDS011;39421;53.204;6.568;2022-07-15T08:23:45;1.90;;;0.60;;
53533;SDS011;39421;53.204;6.568;2022-07-15T08:26:11;1.40;;;0.73;;
53533;SDS011;39421;53.204;6.568;2022-07-15T08:28:44;1.05;;;0.60;;
53533;SDS011;39421;53.204;6.568;2022-07-15T08:31:09;1.40;;;0.77;;
53533;SDS011;39421;53.204;6.568;2022-07-15T08:33:35;1.58;;;0.65;;
53533;SDS011;39421;53.204;6.568;2022-07-15T08:36:00;1.40;;;0.60;;
53533;SDS011;39421;53.204;6.568;2022-07-15T08:38:26;1.40;;;0.60;;
53533;SDS011;39421;53.204;6.568;2022-07-15T08:40:52;0.57;;;0.43;;
53533;SDS011;39421;53.204;6.568;2022-07-15T08:43:20;1.20;;;0.63;;
53533;SDS011;39421;53.204;6.568;2022-07-15T08:45:47;0.98;;;0.60;;
53533;SDS011;39421;53.204;6.568;2022-07-15T08:48:13;2.50;;;0.50;;
53533;SDS011;39421;53.204;6.568;2022-07-15T08:50:45;1.83;;;0.82;;
53533;SDS011;39421;53.204;6.568;2022-07-15T08:53:11;1.58;;;0.70;;
53533;SDS011;39421;53.204;6.568;2022-07-15T08:55:36;2.20;;;0.77;;
53533;SDS011;39421;53.204;6.568;2022-07-15T08:58:02;3.08;;;0.70;;
53533;SDS011;39421;53.204;6.568;2022-07-15T09:00:28;2.13;;;0.70;;
53533;SDS011;39421;53.204;6.568;2022-07-15T09:02:56;1.33;;;0.60;;
53533;SDS011;39421;53.204;6.568;2022-07-15T09:05:27;1.63;;;0.80;;
53533;SDS011;39421;53.204;6.568;2022-07-15T09:08:04;1.03;;;0.63;;
53533;SDS011;39421;53.204;6.568;2022-07-15T09:13:09;2.00;;;0.60;;
53533;SDS011;39421;53.204;6.568;2022-07-15T09:15:37;0.85;;;0.65;;
53533;SDS011;39421;53.204;6.568;2022-07-15T09:18:08;1.55;;;0.70;;
53533;SDS011;39421;53.204;6.568;2022-07-15T09:20:42;2.55;;;0.70;;
53533;SDS011;39421;53.204;6.568;2022-07-15T09:23:16;1.48;;;0.70;;
53533;SDS011;39421;53.204;6.568;2022-07-15T09:25:47;1.67;;;0.70;;
53533;SDS011;39421;53.204;6.568;2022-07-15T09:28:17;1.35;;;0.70;;
53533;SDS011;39421;53.204;6.568;2022-07-15T09:30:50;2.10;;;0.77;;
53533;SDS011;39421;53.204;6.568;2022-07-15T09:33:35;2.63;;;0.90;;
53533;SDS011;39421;53.204;6.568;2022-07-15T09:38:55;2.33;;;0.90;;
53533;SDS011;39421;53.204;6.568;2022-07-15T09:41:28;2.05;;;0.63;;
53533;SDS011;39421;53.204;6.568;2022-07-15T09:43:59;2.35;;;0.80;;
53533;SDS011;39421;53.204;6.568;2022-07-15T09:46:45;3.50;;;0.93;;
53533;SDS011;39421;53.204;6.568;2022-07-15T09:49:14;1.00;;;0.52;;
53533;SDS011;39421;53.204;6.568;2022-07-15T09:51:53;3.85;;;0.73;;
53533;SDS011;39421;53.204;6.568;2022-07-15T09:54:20;1.67;;;0.65;;
53533;SDS011;39421;53.204;6.568;2022-07-15T09:56:48;1.92;;;0.65;;
53533;SDS011;39421;53.204;6.568;2022-07-15T09:59:15;3.65;;;0.98;;
53533;SDS011;39421;53.204;6.568;2022-07-15T10:01:42;9.35;;;1.63;;
53533;SDS011;39421;53.204;6.568;2022-07-15T10:04:09;4.68;;;1.05;;
53533;SDS011;39421;53.204;6.568;2022-07-15T10:06:36;1.48;;;0.70;;
53533;SDS011;39421;53.204;6.568;2022-07-15T10:09:04;7.75;;;1.00;;
53533;SDS011;39421;53.204;6.568;2022-07-15T10:11:31;1.70;;;0.75;;
53533;SDS011;39421;53.204;6.568;2022-07-15T10:28:15;2.97;;;0.80;;
53533;SDS011;39421;53.204;6.568;2022-07-15T10:31:13;1.40;;;0.70;;
53533;SDS011;39421;53.204;6.568;2022-07-15T10:33:41;3.05;;;0.80;;
53533;SDS011;39421;53.204;6.568;2022-07-15T10:36:07;1.13;;;0.60;;
53533;SDS011;39421;53.204;6.568;2022-07-15T10:38:39;0.95;;;0.60;;
53533;SDS011;39421;53.204;6.568;2022-07-15T10:41:14;2.10;;;0.50;;
53533;SDS011;39421;53.204;6.568;2022-07-15T10:43:53;3.05;;;0.70;;
53533;SDS011;39421;53.204;6.568;2022-07-15T10:48:51;3.30;;;0.68;;
53533;SDS011;39421;53.204;6.568;2022-07-15T10:51:43;2.50;;;0.80;;
53533;SDS011;39421;53.204;6.568;2022-07-15T10:56:45;1.38;;;0.60;;
53533;SDS011;39421;53.204;6.568;2022-07-15T10:59:20;2.10;;;0.63;;
53533;SDS011;39421;53.204;6.568;2022-07-15T11:04:26;1.73;;;0.50;;
53533;SDS011;39421;53.204;6.568;2022-07-15T11:19:56;2.80;;;0.60;;
53533;SDS011;39421;53.204;6.568;2022-07-15T11:22:26;2.30;;;0.80;;
53533;SDS011;39421;53.204;6.568;2022-07-15T11:24:54;4.10;;;1.10;;
53533;SDS011;39421;53.204;6.568;2022-07-15T11:27:22;1.70;;;0.57;;
53533;SDS011;39421;53.204;6.568;2022-07-15T11:32:27;1.27;;;0.57;;
53533;SDS011;39421;53.204;6.568;2022-07-15T11:35:04;1.58;;;0.50;;
53533;SDS011;39421;53.204;6.568;2022-07-15T11:37:31;1.23;;;0.80;;
53533;SDS011;39421;53.204;6.568;2022-07-15T11:40:11;2.78;;;0.75;;
53533;SDS011;39421;53.204;6.568;2022-07-15T11:43:15;2.38;;;0.70;;
53533;SDS011;39421;53.204;6.568;2022-07-15T11:46:03;2.85;;;0.90;;
53533;SDS011;39421;53.204;6.568;2022-07-15T11:48:33;2.20;;;0.88;;
53533;SDS011;39421;53.204;6.568;2022-07-15T11:51:03;2.40;;;0.70;;
53533;SDS011;39421;53.204;6.568;2022-07-15T11:53:34;2.22;;;0.80;;
53533;SDS011;39421;53.204;6.568;2022-07-15T11:56:09;1.33;;;0.80;;
53533;SDS011;39421;53.204;6.568;2022-07-15T11:58:38;2.28;;;0.70;;
53533;SDS011;39421;53.204;6.568;2022-07-15T12:01:17;2.58;;;1.02;;
53533;SDS011;39421;53.204;6.568;2022-07-15T12:03:51;2.33;;;0.90;;
53533;SDS011;39421;53.204;6.568;2022-07-15T12:06:19;1.50;;;0.70;;
53533;SDS011;39421;53.204;6.568;2022-07-15T12:08:50;5.28;;;1.20;;
53533;SDS011;39421;53.204;6.568;2022-07-15T12:14:05;8.27;;;1.60;;
53533;SDS011;39421;53.204;6.568;2022-07-15T12:16:40;1.88;;;0.80;;
53533;SDS011;39421;53.204;6.568;2022-07-15T12:19:18;6.93;;;1.50;;
53533;SDS011;39421;53.204;6.568;2022-07-15T12:21:48;6.40;;;2.20;;
53533;SDS011;39421;53.204;6.568;2022-07-15T12:24:19;3.13;;;1.57;;
53533;SDS011;39421;53.204;6.568;2022-07-15T12:29:15;2.83;;;1.10;;
53533;SDS011;39421;53.204;6.568;2022-07-15T12:31:50;3.92;;;1.10;;
53533;SDS011;39421;53.204;6.568;2022-07-15T12:34:17;1.13;;;0.70;;
53533;SDS011;39421;53.204;6.568;2022-07-15T12:36:43;1.43;;;0.90;;
53533;SDS011;39421;53.204;6.568;2022-07-15T12:41:43;1.88;;;0.93;;
53533;SDS011;39421;53.204;6.568;2022-07-15T12:44:11;2.15;;;0.95;;
53533;SDS011;39421;53.204;6.568;2022-07-15T12:49:48;3.25;;;1.00;;
53533;SDS011;39421;53.204;6.568;2022-07-15T12:52:17;4.88;;;1.10;;
53533;SDS011;39421;53.204;6.568;2022-07-15T12:54:46;8.45;;;1.65;;
53533;SDS011;39421;53.204;6.568;2022-07-15T12:59:58;1.15;;;0.80;;
53533;SDS011;39421;53.204;6.568;2022-07-15T13:02:59;3.90;;;1.20;;
53533;SDS011;39421;53.204;6.568;2022-07-15T13:05:31;7.05;;;1.42;;
53533;SDS011;39421;53.204;6.568;2022-07-15T13:08:08;3.10;;;1.23;;
53533;SDS011;39421;53.204;6.568;2022-07-15T13:10:42;1.42;;;1.00;;
53533;SDS011;39421;53.204;6.568;2022-07-15T13:13:15;3.37;;;1.27;;
53533;SDS011;39421;53.204;6.568;2022-07-15T13:15:43;2.30;;;1.00;;
53533;SDS011;39421;53.204;6.568;2022-07-15T13:18:10;5.35;;;1.65;;
53533;SDS011;39421;53.204;6.568;2022-07-15T13:20:36;3.45;;;1.35;;
53533;SDS011;39421;53.204;6.568;2022-07-15T13:23:02;1.83;;;1.10;;
53533;SDS011;39421;53.204;6.568;2022-07-15T13:25:29;2.45;;;1.10;;
53533;SDS011;39421;53.204;6.568;2022-07-15T13:27:58;1.80;;;1.02;;
53533;SDS011;39421;53.204;6.568;2022-07-15T13:30:25;3.30;;;1.23;;
53533;SDS011;39421;53.204;6.568;2022-07-15T13:32:51;6.45;;;1.40;;
53533;SDS011;39421;53.204;6.568;2022-07-15T13:35:17;4.60;;;1.55;;
53533;SDS011;39421;53.204;6.568;2022-07-15T13:37:44;2.17;;;0.90;;
53533;SDS011;39421;53.204;6.568;2022-07-15T13:40:11;5.18;;;1.30;;
53533;SDS011;39421;53.204;6.568;2022-07-15T13:42:39;2.53;;;1.17;;
53533;SDS011;39421;53.204;6.568;2022-07-15T13:45:06;3.10;;;1.25;;
53533;SDS011;39421;53.204;6.568;2022-07-15T13:47:32;2.58;;;1.10;;
53533;SDS011;39421;53.204;6.568;2022-07-15T13:50:00;2.70;;;1.13;;
53533;SDS011;39421;53.204;6.568;2022-07-15T13:52:48;3.13;;;1.40;;
53533;SDS011;39421;53.204;6.568;2022-07-15T13:55:16;2.72;;;1.20;;
53533;SDS011;39421;53.204;6.568;2022-07-15T13:57:47;2.95;;;1.15;;
53533;SDS011;39421;53.204;6.568;2022-07-15T14:00:14;1.80;;;1.10;;
53533;SDS011;39421;53.204;6.568;2022-07-15T14:02:44;3.78;;;1.40;;
53533;SDS011;39421;53.204;6.568;2022-07-15T14:05:10;2.67;;;1.20;;
53533;SDS011;39421;53.204;6.568;2022-07-15T14:07:37;2.17;;;1.20;;
53533;SDS011;39421;53.204;6.568;2022-07-15T14:10:03;1.50;;;1.10;;
53533;SDS011;39421;53.204;6.568;2022-07-15T14:12:29;3.53;;;1.90;;
53533;SDS011;39421;53.204;6.568;2022-07-15T14:14:55;3.38;;;1.40;;
53533;SDS011;39421;53.204;6.568;2022-07-15T14:17:23;4.13;;;1.30;;
53533;SDS011;39421;53.204;6.568;2022-07-15T14:19:49;2.23;;;1.10;;
53533;SDS011;39421;53.204;6.568;2022-07-15T14:22:14;2.53;;;1.40;;
53533;SDS011;39421;53.204;6.568;2022-07-15T14:24:40;4.87;;;1.70;;
53533;SDS011;39421;53.204;6.568;2022-07-15T14:27:07;1.80;;;1.23;;
53533;SDS011;39421;53.204;6.568;2022-07-15T14:29:34;3.45;;;1.30;;
53533;SDS011;39421;53.204;6.568;2022-07-15T14:32:00;3.00;;;1.50;;
53533;SDS011;39421;53.204;6.568;2022-07-15T14:34:26;3.50;;;1.53;;
53533;SDS011;39421;53.204;6.568;2022-07-15T14:36:53;2.72;;;1.30;;
53533;SDS011;39421;53.204;6.568;2022-07-15T14:39:19;2.88;;;1.27;;
53533;SDS011;39421;53.204;6.568;2022-07-15T14:41:45;2.40;;;1.10;;
53533;SDS011;39421;53.204;6.568;2022-07-15T14:44:13;1.92;;;1.10;;
53533;SDS011;39421;53.204;6.568;2022-07-15T14:46:39;8.00;;;1.67;;
53533;SDS011;39421;53.204;6.568;2022-07-15T14:49:06;3.60;;;1.10;;
53533;SDS011;39421;53.204;6.568;2022-07-15T14:51:32;1.43;;;1.10;;
53533;SDS011;39421;53.204;6.568;2022-07-15T14:53:57;2.85;;;1.15;;
53533;SDS011;39421;53.204;6.568;2022-07-15T14:56:26;2.42;;;1.00;;
53533;SDS011;39421;53.204;6.568;2022-07-15T14:58:52;2.27;;;1.23;;
53533;SDS011;39421;53.204;6.568;2022-07-15T15:01:18;2.00;;;1.10;;
53533;SDS011;39421;53.204;6.568;2022-07-15T15:03:43;2.72;;;1.23;;
53533;SDS011;39421;53.204;6.568;2022-07-15T15:06:09;2.08;;;1.20;;
53533;SDS011;39421;53.204;6.568;2022-07-15T15:08:35;2.30;;;1.10;;
53533;SDS011;39421;53.204;6.568;2022-07-15T15:11:01;2.38;;;1.20;;
53533;SDS011;39421;53.204;6.568;2022-07-15T15:13:27;2.63;;;1.10;;
53533;SDS011;39421;53.204;6.568;2022-07-15T15:15:52;2.42;;;1.20;;
53533;SDS011;39421;53.204;6.568;2022-07-15T15:18:18;3.38;;;1.20;;
53533;SDS011;39421;53.204;6.568;2022-07-15T15:20:44;3.30;;;1.30;;
53533;SDS011;39421;53.204;6.568;2022-07-15T15:23:10;2.17;;;1.30;;
53533;SDS011;39421;53.204;6.568;2022-07-15T15:25:35;3.43;;;1.30;;
53533;SDS011;39421;53.204;6.568;2022-07-15T15:28:20;3.60;;;1.50;;
53533;SDS011;39421;53.204;6.568;2022-07-15T15:30:45;3.30;;;1.50;;
53533;SDS011;39421;53.204;6.568;2022-07-15T15:33:11;3.63;;;1.48;;
53533;SDS011;39421;53.204;6.568;2022-07-15T15:35:37;2.40;;;1.30;;
53533;SDS011;39421;53.204;6.568;2022-07-15T15:38:03;4.53;;;1.52;;
53533;SDS011;39421;53.204;6.568;2022-07-15T15:40:29;3.42;;;1.48;;
53533;SDS011;39421;53.204;6.568;2022-07-15T15:42:54;3.28;;;1.98;;
53533;SDS011;39421;53.204;6.568;2022-07-15T15:45:26;2.53;;;1.30;;
53533;SDS011;39421;53.204;6.568;2022-07-15T15:47:54;3.35;;;1.45;;
53533;SDS011;39421;53.204;6.568;2022-07-15T15:50:20;3.10;;;1.60;;